Time;durP1;ratioP1;P1;durP2;ratioP2;P2;SDS_P1;SDS_P2;PMS_P1;PMS_P2;Temp;Humidity;BMP_temperature;BMP_pressure;BME280_temperature;BME280_humidity;BME280_pressure;Samples;Min_cycle;Max_cycle;Signal;HPM_P1;HPM_P2
2021/10/27 00:00:34;;;;;;;7.20;4.00;;;13.10;99.90;;;;;;6245209;22;20024;-80
2021/10/27 00:03:01;;;;;;;5.75;4.22;;;13.10;99.90;;;;;;6250679;23;20467;-79
2021/10/27 00:05:30;;;;;;;7.88;4.30;;;13.00;99.90;;;;;;6248901;23;20028;-78
2021/10/27 00:07:57;;;;;;;5.82;4.25;;;13.00;99.90;;;;;;6249392;23;20028;-81
2021/10/27 00:10:24;;;;;;;6.07;4.20;;;13.00;99.90;;;;;;6279268;22;20046;-80
2021/10/27 00:12:51;;;;;;;9.82;4.53;;;13.00;99.90;;;;;;6280771;22;20071;-81
2021/10/27 00:15:19;;;;;;;5.47;4.53;;;12.90;99.90;;;;;;6279605;22;20020;-80
2021/10/27 00:17:48;;;;;;;7.03;4.40;;;12.90;99.90;;;;;;6279145;22;20043;-79
2021/10/27 00:20:15;;;;;;;8.25;4.53;;;12.90;99.90;;;;;;6277731;22;20078;-79
2021/10/27 00:22:42;;;;;;;9.93;4.90;;;12.90;99.90;;;;;;6277027;22;20031;-79
2021/10/27 00:25:10;;;;;;;9.30;4.03;;;12.80;99.90;;;;;;6275824;22;20111;-79
2021/10/27 00:27:38;;;;;;;6.00;4.20;;;12.80;99.90;;;;;;6276333;22;20020;-78
2021/10/27 00:30:06;;;;;;;5.40;4.03;;;12.80;99.90;;;;;;6275927;22;20379;-78
2021/10/27 00:32:33;;;;;;;6.63;4.10;;;12.80;99.90;;;;;;6276298;22;20394;-78
2021/10/27 00:35:01;;;;;;;6.00;4.38;;;12.80;99.90;;;;;;6276556;22;20364;-79
2021/10/27 00:37:28;;;;;;;5.53;4.20;;;12.80;99.90;;;;;;6276718;22;20031;-78
2021/10/27 00:39:56;;;;;;;5.18;4.40;;;12.90;99.90;;;;;;6276316;22;20087;-79
2021/10/27 00:42:23;;;;;;;6.78;4.25;;;12.90;99.90;;;;;;6276410;22;20027;-79
2021/10/27 00:44:50;;;;;;;9.32;4.05;;;12.90;99.90;;;;;;6277111;22;20051;-77
2021/10/27 00:47:17;;;;;;;7.45;4.30;;;12.90;99.90;;;;;;6282268;22;20051;-79
2021/10/27 00:49:46;;;;;;;7.32;4.85;;;12.90;99.90;;;;;;6282497;22;20058;-78
2021/10/27 00:52:16;;;;;;;5.97;4.22;;;12.90;99.90;;;;;;6278915;22;20023;-79
2021/10/27 00:54:44;;;;;;;5.35;4.25;;;12.90;99.90;;;;;;6277103;22;20077;-80
2021/10/27 00:57:13;;;;;;;6.07;3.85;;;13.00;99.90;;;;;;6277391;22;20043;-79
2021/10/27 00:59:42;;;;;;;6.72;4.07;;;13.00;99.90;;;;;;6258508;22;20016;-80
2021/10/27 01:02:12;;;;;;;5.25;4.10;;;13.00;99.90;;;;;;6250815;23;20102;-80
2021/10/27 01:04:40;;;;;;;8.65;4.03;;;13.10;99.90;;;;;;6251399;23;20051;-81
2021/10/27 01:07:07;;;;;;;5.07;4.28;;;13.10;99.90;;;;;;6251101;23;20074;-81
2021/10/27 01:09:37;;;;;;;6.80;4.10;;;13.10;99.90;;;;;;6251615;23;20051;-80
2021/10/27 01:12:05;;;;;;;7.18;4.50;;;13.10;99.90;;;;;;6252077;23;20028;-80
2021/10/27 01:14:38;;;;;;;6.25;4.20;;;13.10;99.90;;;;;;6251598;23;20031;-80
2021/10/27 01:17:08;;;;;;;7.80;4.05;;;13.10;99.90;;;;;;6250551;23;20054;-80
2021/10/27 01:19:45;;;;;;;6.00;4.35;;;13.10;99.90;;;;;;6251782;23;20050;-80
2021/10/27 01:22:12;;;;;;;6.20;4.22;;;13.10;99.90;;;;;;6250936;23;20485;-80
2021/10/27 01:24:39;;;;;;;6.25;4.57;;;13.10;99.90;;;;;;6250424;23;20020;-80
2021/10/27 01:27:06;;;;;;;6.70;4.30;;;13.10;99.90;;;;;;6249670;23;20024;-82
2021/10/27 01:29:34;;;;;;;5.88;4.20;;;13.10;99.90;;;;;;6249907;23;20043;-79
2021/10/27 01:32:01;;;;;;;7.30;4.40;;;13.10;99.90;;;;;;6249728;23;20058;-81
2021/10/27 01:34:27;;;;;;;8.57;4.30;;;13.10;99.90;;;;;;6249752;23;20055;-79
2021/10/27 01:36:56;;;;;;;4.57;4.00;;;13.10;99.90;;;;;;6246758;23;20371;-77
2021/10/27 01:39:24;;;;;;;6.18;4.32;;;13.10;99.90;;;;;;6246174;23;20063;-78
2021/10/27 01:41:51;;;;;;;6.03;4.18;;;13.10;99.90;;;;;;6246724;23;20024;-80
2021/10/27 01:44:20;;;;;;;5.28;4.15;;;13.10;99.90;;;;;;6248253;23;20082;-79
2021/10/27 01:46:47;;;;;;;5.03;4.18;;;13.20;99.90;;;;;;6246373;23;20107;-80
2021/10/27 01:49:23;;;;;;;6.43;4.30;;;13.20;99.90;;;;;;6251130;23;20066;-81
2021/10/27 01:51:59;;;;;;;6.18;4.10;;;13.10;99.90;;;;;;6257605;23;20020;-80
2021/10/27 01:54:30;;;;;;;4.40;3.70;;;13.10;99.90;;;;;;6249073;23;20096;-81
2021/10/27 01:57:03;;;;;;;4.63;3.85;;;13.10;99.90;;;;;;6247076;23;20095;-79
2021/10/27 01:59:30;;;;;;;4.85;4.10;;;13.10;99.90;;;;;;6247502;22;20042;-80
2021/10/27 02:01:57;;;;;;;5.95;3.70;;;13.10;99.90;;;;;;6247583;23;20089;-79
2021/10/27 02:04:23;;;;;;;6.10;3.63;;;13.10;99.90;;;;;;6247991;23;20024;-80
2021/10/27 02:06:50;;;;;;;4.95;3.85;;;13.10;99.90;;;;;;6247768;23;20035;-81
2021/10/27 02:09:19;;;;;;;4.40;3.63;;;13.10;99.90;;;;;;6247792;23;20095;-80
2021/10/27 02:11:48;;;;;;;4.50;3.70;;;13.10;99.90;;;;;;6248165;23;20036;-80
2021/10/27 02:14:17;;;;;;;5.47;3.70;;;13.10;99.90;;;;;;6247839;23;20028;-80
2021/10/27 02:16:44;;;;;;;5.35;4.00;;;13.10;99.90;;;;;;6250190;23;20024;-81
2021/10/27 02:19:11;;;;;;;7.95;4.45;;;13.10;99.90;;;;;;6252196;23;20043;-81
2021/10/27 02:21:38;;;;;;;8.15;5.25;;;13.10;99.90;;;;;;6253461;23;20103;-80
2021/10/27 02:24:06;;;;;;;8.18;6.47;;;13.10;99.90;;;;;;6250802;23;20062;-81
2021/10/27 02:26:34;;;;;;;8.18;6.38;;;13.10;99.90;;;;;;6249110;23;20055;-80
2021/10/27 02:29:01;;;;;;;9.77;6.38;;;13.00;99.90;;;;;;6249129;23;20055;-82
2021/10/27 02:31:28;;;;;;;9.52;5.85;;;13.00;99.90;;;;;;6247825;23;20495;-80
2021/10/27 02:33:55;;;;;;;8.38;6.00;;;13.00;99.90;;;;;;6247759;23;20135;-80
2021/10/27 02:36:22;;;;;;;8.48;5.65;;;12.90;99.90;;;;;;6247505;23;20055;-81
2021/10/27 02:38:49;;;;;;;6.93;5.03;;;12.90;99.90;;;;;;6248464;23;20474;-80
2021/10/27 02:41:17;;;;;;;7.43;5.10;;;13.00;99.90;;;;;;6247175;23;20481;-80
2021/10/27 02:43:45;;;;;;;7.85;4.80;;;13.00;99.90;;;;;;6247637;23;20055;-81
2021/10/27 02:46:13;;;;;;;7.13;4.38;;;13.00;99.90;;;;;;6247522;23;20072;-80
2021/10/27 02:48:39;;;;;;;7.43;4.20;;;13.00;99.90;;;;;;6247667;23;20076;-80
2021/10/27 02:51:06;;;;;;;6.07;4.45;;;12.90;99.90;;;;;;6250355;23;20413;-81
2021/10/27 02:53:34;;;;;;;9.50;4.68;;;12.90;99.90;;;;;;6251051;23;20062;-80
2021/10/27 02:56:01;;;;;;;6.90;5.35;;;12.90;99.90;;;;;;6250188;23;20402;-79
2021/10/27 02:58:28;;;;;;;9.48;5.90;;;13.00;99.90;;;;;;6249795;22;20047;-80
2021/10/27 03:00:56;;;;;;;7.95;5.78;;;13.00;99.90;;;;;;6252498;23;20027;-82
2021/10/27 03:03:23;;;;;;;7.47;5.38;;;13.00;99.90;;;;;;6254926;23;20034;-80
2021/10/27 03:05:50;;;;;;;7.88;5.60;;;13.00;99.90;;;;;;6252966;23;20410;-81
2021/10/27 03:08:17;;;;;;;7.70;5.30;;;13.00;99.90;;;;;;6250377;23;20469;-82
2021/10/27 03:10:47;;;;;;;7.57;4.70;;;13.00;99.90;;;;;;6261288;23;20043;-82
2021/10/27 03:13:14;;;;;;;8.55;4.65;;;13.00;99.90;;;;;;6251936;23;20032;-83
2021/10/27 03:15:42;;;;;;;6.00;4.20;;;13.10;99.90;;;;;;6250803;23;20027;-84
2021/10/27 03:18:11;;;;;;;6.30;4.47;;;13.00;99.90;;;;;;6251243;23;20025;-84
2021/10/27 03:20:38;;;;;;;6.65;4.25;;;12.80;99.90;;;;;;6252358;23;20028;-84
2021/10/27 03:23:05;;;;;;;7.55;4.15;;;12.70;99.90;;;;;;6255706;23;20016;-82
2021/10/27 03:25:36;;;;;;;6.13;4.05;;;12.70;99.90;;;;;;6253143;23;20040;-81
2021/10/27 03:28:03;;;;;;;6.70;4.72;;;12.60;99.90;;;;;;6260570;23;20024;-85
2021/10/27 03:30:30;;;;;;;7.18;4.20;;;12.50;99.90;;;;;;6262527;23;20071;-84
2021/10/27 03:32:57;;;;;;;5.80;3.90;;;12.50;99.90;;;;;;6264311;23;20039;-82
2021/10/27 03:35:26;;;;;;;6.38;3.95;;;12.50;99.90;;;;;;6260219;23;20051;-85
2021/10/27 03:37:53;;;;;;;6.22;4.40;;;12.40;99.90;;;;;;6251096;23;20024;-81
2021/10/27 03:40:19;;;;;;;5.25;4.20;;;12.40;99.90;;;;;;6249776;23;20462;-82
2021/10/27 03:42:46;;;;;;;6.47;4.20;;;12.30;99.90;;;;;;6250312;23;20064;-83
2021/10/27 03:45:13;;;;;;;9.18;4.43;;;12.30;99.90;;;;;;6250219;23;20032;-82
2021/10/27 03:47:41;;;;;;;6.40;4.03;;;12.30;99.90;;;;;;6250295;23;20020;-83
2021/10/27 03:50:11;;;;;;;5.82;3.85;;;12.20;99.90;;;;;;6249174;23;20028;-83
2021/10/27 03:52:40;;;;;;;6.82;3.95;;;12.20;99.90;;;;;;6250285;23;20020;-83
2021/10/27 03:55:07;;;;;;;6.78;4.18;;;12.10;99.90;;;;;;6250842;23;20024;-83
2021/10/27 03:57:34;;;;;;;5.15;4.13;;;12.10;99.90;;;;;;6251161;23;20073;-82
2021/10/27 04:00:01;;;;;;;8.88;3.85;;;12.10;99.90;;;;;;6247748;22;20074;-83
2021/10/27 04:02:31;;;;;;;10.13;4.68;;;12.00;99.90;;;;;;6250082;23;20024;-83
2021/10/27 04:05:00;;;;;;;9.25;4.75;;;12.00;99.90;;;;;;6251314;23;20035;-84
2021/10/27 04:07:27;;;;;;;10.82;4.70;;;12.00;99.90;;;;;;6251990;23;20024;-83
2021/10/27 04:09:56;;;;;;;6.57;4.25;;;11.90;99.90;;;;;;6250452;23;20062;-84
2021/10/27 04:12:22;;;;;;;7.10;4.25;;;11.80;99.90;;;;;;6252270;23;20028;-84
2021/10/27 04:14:49;;;;;;;6.90;4.82;;;11.80;99.90;;;;;;6252226;23;20028;-81
2021/10/27 04:17:16;;;;;;;7.53;4.75;;;11.80;99.90;;;;;;6254945;23;20030;-83
2021/10/27 04:19:43;;;;;;;9.00;4.97;;;11.70;99.90;;;;;;6254049;23;20066;-82
2021/10/27 04:22:10;;;;;;;6.50;5.18;;;11.70;99.90;;;;;;6255244;23;20035;-82
2021/10/27 04:24:37;;;;;;;11.95;5.70;;;11.60;99.90;;;;;;6257854;23;20039;-81
2021/10/27 04:27:07;;;;;;;8.30;5.55;;;11.60;99.90;;;;;;6257423;23;20447;-82
2021/10/27 04:29:34;;;;;;;7.63;5.05;;;11.60;99.90;;;;;;6257571;23;20024;-81
2021/10/27 04:32:01;;;;;;;9.45;5.00;;;11.70;99.90;;;;;;6251259;23;20024;-81
2021/10/27 04:34:28;;;;;;;7.07;5.15;;;11.70;99.90;;;;;;6251791;23;20024;-81
2021/10/27 04:36:55;;;;;;;12.65;5.25;;;11.80;99.90;;;;;;6250619;23;20084;-82
2021/10/27 04:39:21;;;;;;;8.43;5.25;;;11.80;99.90;;;;;;6251033;23;20055;-81
2021/10/27 04:41:48;;;;;;;6.93;4.97;;;11.90;99.90;;;;;;6251308;23;20414;-82
2021/10/27 04:44:16;;;;;;;9.57;5.03;;;11.90;99.90;;;;;;6251131;23;20048;-80
2021/10/27 04:46:43;;;;;;;6.18;5.30;;;11.90;99.90;;;;;;6250179;23;20024;-81
2021/10/27 04:49:11;;;;;;;8.85;5.50;;;11.90;99.90;;;;;;6251193;23;20331;-80
2021/10/27 04:51:38;;;;;;;9.10;5.78;;;11.90;99.90;;;;;;6251262;23;20026;-81
2021/10/27 04:54:05;;;;;;;12.30;5.75;;;11.80;99.90;;;;;;6250472;23;20027;-81
2021/10/27 04:56:32;;;;;;;8.57;5.90;;;11.80;99.90;;;;;;6249772;23;20095;-80
2021/10/27 04:58:59;;;;;;;7.85;6.72;;;11.80;99.90;;;;;;6249836;22;20020;-80
2021/10/27 05:01:35;;;;;;;10.90;6.07;;;11.80;99.90;;;;;;6252989;23;20020;-82
2021/10/27 05:04:02;;;;;;;9.15;6.40;;;11.80;99.90;;;;;;6253867;23;20024;-82
2021/10/27 05:06:29;;;;;;;8.50;5.70;;;11.90;99.90;;;;;;6252253;23;20020;-84
2021/10/27 05:08:56;;;;;;;9.70;6.38;;;11.90;99.90;;;;;;6251928;23;20462;-83
2021/10/27 05:11:23;;;;;;;10.60;6.50;;;11.90;99.90;;;;;;6250935;23;20319;-82
2021/10/27 05:13:50;;;;;;;12.40;6.57;;;12.00;99.90;;;;;;6251489;23;20411;-82
2021/10/27 05:16:17;;;;;;;11.68;6.82;;;12.00;99.90;;;;;;6251364;23;20024;-82
2021/10/27 05:18:45;;;;;;;12.65;6.45;;;12.00;99.90;;;;;;6252016;23;20024;-80
2021/10/27 05:21:12;;;;;;;20.13;14.88;;;12.10;99.90;;;;;;6251575;23;20027;-82
2021/10/27 05:23:39;;;;;;;9.45;6.53;;;12.10;99.90;;;;;;6251987;23;20024;-83
2021/10/27 05:26:05;;;;;;;12.65;8.32;;;12.20;99.90;;;;;;6250974;23;20382;-83
2021/10/27 05:28:33;;;;;;;18.52;11.35;;;12.10;99.90;;;;;;6252346;23;20036;-82
2021/10/27 05:31:00;;;;;;;18.90;12.02;;;12.20;99.90;;;;;;6251585;23;20322;-82
2021/10/27 05:33:30;;;;;;;11.02;7.03;;;12.20;99.90;;;;;;6251100;23;20028;-83
2021/10/27 05:35:58;;;;;;;11.93;9.85;;;12.20;99.90;;;;;;6250008;23;20047;-81
2021/10/27 05:38:25;;;;;;;10.52;8.27;;;12.20;99.90;;;;;;6250689;23;20024;-81
2021/10/27 05:40:52;;;;;;;12.05;7.53;;;12.20;99.90;;;;;;6250570;23;20020;-80
2021/10/27 05:43:19;;;;;;;11.63;7.88;;;12.20;99.90;;;;;;6249487;23;20050;-79
2021/10/27 05:45:47;;;;;;;11.45;8.60;;;12.20;99.90;;;;;;6252566;23;20099;-81
2021/10/27 05:48:15;;;;;;;11.30;10.15;;;12.20;99.90;;;;;;6250965;23;20089;-81
2021/10/27 05:50:44;;;;;;;11.18;8.40;;;12.20;99.90;;;;;;6249615;23;20016;-80
2021/10/27 05:55:57;;;;;;;10.93;8.63;;;12.30;99.90;;;;;;6246887;23;20039;-79
2021/10/27 05:58:24;;;;;;;12.48;8.20;;;12.30;99.90;;;;;;6247136;22;20363;-81
2021/10/27 06:00:53;;;;;;;10.45;7.97;;;12.30;99.90;;;;;;6249508;23;20070;-84
2021/10/27 06:03:20;;;;;;;13.10;8.38;;;12.30;99.90;;;;;;6248375;23;20024;-80
2021/10/27 06:05:47;;;;;;;12.10;8.30;;;12.30;99.90;;;;;;6247454;23;20059;-80
2021/10/27 06:08:16;;;;;;;13.65;9.95;;;12.30;99.90;;;;;;6248003;23;20080;-78
2021/10/27 06:10:43;;;;;;;9.80;8.40;;;12.30;99.90;;;;;;6250169;23;20078;-80
2021/10/27 06:13:12;;;;;;;15.30;9.73;;;12.30;99.90;;;;;;6246862;23;20020;-79
2021/10/27 06:15:39;;;;;;;10.93;8.00;;;12.30;99.90;;;;;;6245465;22;20071;-81
2021/10/27 06:18:06;;;;;;;16.38;10.48;;;12.30;99.90;;;;;;6253032;23;20411;-85
2021/10/27 06:20:33;;;;;;;15.05;10.50;;;12.30;99.90;;;;;;6254206;23;20032;-85
2021/10/27 06:23:00;;;;;;;14.65;9.60;;;12.30;99.90;;;;;;6253240;23;20078;-84
2021/10/27 06:25:30;;;;;;;22.75;17.08;;;12.30;99.90;;;;;;6255624;22;20016;-85
2021/10/27 06:28:03;;;;;;;12.43;9.15;;;12.40;99.90;;;;;;6288291;22;20020;-82
2021/10/27 06:30:41;;;;;;;16.58;10.55;;;12.40;99.90;;;;;;6286886;22;20030;-84
2021/10/27 06:33:19;;;;;;;16.40;9.70;;;12.40;99.90;;;;;;6287451;22;20100;-84
2021/10/27 06:35:51;;;;;;;8.30;7.38;;;12.40;99.90;;;;;;6293913;22;20008;-82
2021/10/27 06:38:28;;;;;;;11.18;7.55;;;12.40;99.90;;;;;;6286573;22;20024;-84
2021/10/27 06:46:32;;;;;;;18.30;13.07;;;12.40;99.90;;;;;;6282189;22;20030;-82
2021/10/27 06:48:59;;;;;;;14.05;7.20;;;12.50;99.90;;;;;;6282936;22;20073;-82
2021/10/27 06:51:26;;;;;;;11.30;7.50;;;12.50;99.90;;;;;;6282995;22;20442;-80
2021/10/27 06:53:53;;;;;;;11.10;7.47;;;12.50;99.90;;;;;;6281985;22;20068;-79
2021/10/27 06:56:23;;;;;;;14.32;12.65;;;12.60;99.90;;;;;;6282197;22;20023;-80
2021/10/27 06:58:53;;;;;;;17.10;15.35;;;12.60;99.90;;;;;;6282787;22;20027;-81
2021/10/27 07:01:24;;;;;;;9.23;6.80;;;12.60;99.90;;;;;;6289654;22;20062;-78
2021/10/27 07:04:13;;;;;;;9.80;6.85;;;12.70;99.90;;;;;;6291360;22;20080;-80
2021/10/27 07:06:58;;;;;;;21.30;17.98;;;12.70;99.90;;;;;;6291645;22;20039;-80
2021/10/27 07:15:08;;;;;;;13.15;8.88;;;13.00;99.90;;;;;;6174852;22;20547;-77
2021/10/27 07:17:36;;;;;;;12.07;9.18;;;13.20;99.90;;;;;;6266061;22;20020;-78
2021/10/27 07:20:06;;;;;;;13.75;7.93;;;13.20;99.90;;;;;;6256510;23;20028;-80
2021/10/27 07:22:33;;;;;;;12.00;7.60;;;13.30;99.90;;;;;;6254897;23;20031;-81
2021/10/27 07:25:02;;;;;;;9.43;6.90;;;13.20;99.90;;;;;;6248779;23;20146;-80
2021/10/27 07:27:30;;;;;;;10.93;7.05;;;13.30;99.90;;;;;;6247771;23;20043;-80
2021/10/27 07:29:57;;;;;;;9.25;7.13;;;13.30;99.90;;;;;;6249732;23;20047;-80
2021/10/27 07:32:26;;;;;;;10.52;6.25;;;13.20;99.90;;;;;;6249626;23;20336;-80
2021/10/27 07:34:56;;;;;;;11.35;6.40;;;13.30;99.90;;;;;;6248732;23;20020;-79
2021/10/27 07:42:57;;;;;;;8.57;6.85;;;13.30;99.90;;;;;;6256911;23;20070;-82
2021/10/27 07:45:26;;;;;;;10.40;7.70;;;13.30;99.90;;;;;;6256232;23;20058;-83
2021/10/27 07:47:54;;;;;;;18.80;12.05;;;13.20;99.90;;;;;;6256237;23;20482;-82
2021/10/27 07:50:22;;;;;;;9.00;6.78;;;13.30;99.90;;;;;;6255608;23;20043;-83
2021/10/27 07:52:49;;;;;;;8.38;6.40;;;13.20;99.90;;;;;;6254713;23;20024;-83
2021/10/27 07:55:16;;;;;;;9.27;6.50;;;13.30;99.90;;;;;;6256612;23;20466;-83
2021/10/27 07:57:43;;;;;;;11.55;7.00;;;13.20;99.90;;;;;;6254893;23;20030;-83
2021/10/27 08:00:15;;;;;;;16.35;6.35;;;13.20;99.90;;;;;;6254243;23;20059;-82
2021/10/27 08:02:42;;;;;;;8.77;6.20;;;13.20;99.90;;;;;;6255147;23;20031;-83
2021/10/27 08:05:09;;;;;;;13.27;7.35;;;13.20;99.90;;;;;;6253776;23;20054;-82
2021/10/27 08:07:44;;;;;;;10.38;6.68;;;13.20;99.90;;;;;;6255094;23;20024;-82
2021/10/27 08:10:11;;;;;;;17.98;11.52;;;13.30;99.90;;;;;;6254195;23;20020;-82
2021/10/27 08:12:39;;;;;;;12.90;7.95;;;13.30;99.90;;;;;;6254477;23;20055;-82
2021/10/27 08:15:06;;;;;;;10.60;6.50;;;13.30;99.90;;;;;;6252810;23;20056;-83
2021/10/27 08:17:35;;;;;;;13.57;8.98;;;13.30;99.90;;;;;;6253759;22;20032;-83
2021/10/27 08:20:03;;;;;;;10.77;7.00;;;13.30;99.90;;;;;;6254262;23;20031;-83
2021/10/27 08:22:30;;;;;;;8.52;6.22;;;13.40;99.90;;;;;;6253779;23;20047;-83
2021/10/27 08:24:57;;;;;;;11.52;7.95;;;13.40;99.90;;;;;;6253445;23;20438;-83
2021/10/27 08:27:24;;;;;;;11.50;7.20;;;13.50;99.90;;;;;;6262927;23;20107;-82
2021/10/27 08:29:51;;;;;;;11.07;7.47;;;13.60;99.90;;;;;;6263088;23;20024;-82
2021/10/27 08:32:29;;;;;;;9.43;6.45;;;13.60;99.90;;;;;;6263078;23;20072;-82
2021/10/27 08:34:58;;;;;;;10.10;6.65;;;13.70;99.90;;;;;;6252018;23;20024;-83
2021/10/27 08:37:25;;;;;;;11.23;7.22;;;13.70;99.90;;;;;;6251701;23;20057;-83
2021/10/27 08:39:52;;;;;;;10.30;6.43;;;13.70;99.90;;;;;;6252045;23;20276;-83
2021/10/27 08:42:20;;;;;;;10.30;6.65;;;13.80;99.90;;;;;;6252237;23;20028;-82
2021/10/27 08:44:47;;;;;;;8.77;6.43;;;13.90;99.90;;;;;;6249658;23;20024;-81
2021/10/27 08:47:15;;;;;;;9.57;6.03;;;13.90;99.90;;;;;;6252715;23;20319;-86
2021/10/27 08:49:43;;;;;;;9.50;5.97;;;13.90;99.90;;;;;;6256311;23;20024;-86
2021/10/27 08:52:13;;;;;;;10.02;5.93;;;14.00;99.90;;;;;;6255954;23;20462;-85
2021/10/27 08:54:40;;;;;;;9.70;5.75;;;14.00;99.90;;;;;;6261131;23;20028;-86
2021/10/27 08:57:10;;;;;;;10.50;6.15;;;14.10;99.90;;;;;;6259600;23;20031;-85
2021/10/27 08:59:53;;;;;;;9.57;6.00;;;14.10;99.90;;;;;;6259860;23;20051;-86
2021/10/27 09:02:44;;;;;;;7.43;5.95;;;14.10;99.90;;;;;;6257019;23;20455;-86
2021/10/27 09:05:21;;;;;;;8.90;5.63;;;14.10;99.90;;;;;;6255381;23;20023;-86
2021/10/27 09:16:38;;;;;;;8.60;5.40;;;14.40;99.90;;;;;;6255494;22;20027;-86
2021/10/27 09:34:05;;;;;;;10.77;4.82;;;14.70;99.90;;;;;;6259978;23;20039;-86
2021/10/27 09:36:49;;;;;;;8.40;4.82;;;14.80;99.90;;;;;;6259546;23;20027;-87
2021/10/27 10:05:11;;;;;;;7.32;4.25;;;15.10;99.90;;;;;;6251477;23;20062;-82
2021/10/27 10:07:38;;;;;;;8.35;4.40;;;15.10;99.90;;;;;;6252746;23;20020;-83
2021/10/27 10:10:08;;;;;;;7.95;4.57;;;15.10;99.90;;;;;;6252032;23;20051;-83
2021/10/27 10:12:37;;;;;;;9.40;4.32;;;15.20;99.90;;;;;;6253858;23;20052;-83
2021/10/27 10:15:06;;;;;;;5.88;4.07;;;15.20;99.90;;;;;;6255632;23;20024;-82
2021/10/27 10:17:35;;;;;;;6.32;4.30;;;15.30;99.90;;;;;;6256138;22;20032;-83
2021/10/27 10:20:02;;;;;;;6.93;4.40;;;15.40;99.90;;;;;;6252310;23;20024;-83
2021/10/27 10:22:33;;;;;;;5.43;4.13;;;15.40;99.90;;;;;;6252377;23;20020;-83
2021/10/27 10:25:32;;;;;;;6.22;4.00;;;15.50;99.90;;;;;;6252685;23;20062;-83
2021/10/27 10:28:16;;;;;;;6.68;4.28;;;15.60;99.90;;;;;;6252893;23;20389;-84
2021/10/27 10:30:52;;;;;;;9.38;4.00;;;15.70;99.90;;;;;;6252048;23;20024;-83
2021/10/27 10:33:19;;;;;;;6.00;3.88;;;15.80;99.90;;;;;;6254301;23;20016;-83
2021/10/27 10:35:55;;;;;;;7.35;3.97;;;15.90;99.90;;;;;;6253741;23;20103;-83
2021/10/27 10:38:40;;;;;;;8.50;4.20;;;16.00;99.90;;;;;;6252558;23;20030;-83
2021/10/27 10:44:37;;;;;;;4.60;3.60;;;16.30;99.90;;;;;;6256065;23;20016;-83
2021/10/27 11:02:18;;;;;;;5.18;3.42;;;16.60;99.90;;;;;;6231307;23;20014;-83
2021/10/27 11:24:47;;;;;;;5.38;3.33;;;17.00;99.90;;;;;;6255094;23;20373;-82
2021/10/27 11:27:25;;;;;;;8.45;3.35;;;16.90;99.90;;;;;;6255035;23;20078;-83
2021/10/27 11:38:22;;;;;;;7.55;4.00;;;17.10;99.90;;;;;;6255268;23;20054;-83
2021/10/27 11:40:55;;;;;;;5.90;3.70;;;17.10;99.90;;;;;;6256002;23;20467;-83
2021/10/27 11:43:31;;;;;;;8.85;4.00;;;17.10;99.90;;;;;;6254657;23;20020;-83
2021/10/27 11:46:09;;;;;;;5.65;3.47;;;17.20;99.90;;;;;;6254896;23;20533;-83
2021/10/27 11:48:53;;;;;;;9.82;3.78;;;17.20;99.90;;;;;;6254516;23;20027;-83
2021/10/27 11:51:20;;;;;;;5.45;3.72;;;17.20;99.90;;;;;;6254961;23;20028;-83
2021/10/27 11:53:49;;;;;;;8.68;3.80;;;17.20;99.90;;;;;;6254639;23;20100;-82
2021/10/27 11:56:18;;;;;;;8.63;3.60;;;17.30;99.90;;;;;;6253456;23;20326;-83
2021/10/27 11:58:47;;;;;;;6.30;3.65;;;17.30;99.90;;;;;;6253684;23;20024;-83
2021/10/27 12:01:14;;;;;;;7.95;3.70;;;17.30;99.90;;;;;;6253545;23;20024;-83
2021/10/27 12:03:43;;;;;;;9.05;3.50;;;17.40;99.90;;;;;;6253617;23;20027;-83
2021/10/27 12:06:31;;;;;;;6.47;3.47;;;17.40;99.90;;;;;;6253930;23;20024;-83
2021/10/27 12:09:21;;;;;;;5.20;3.30;;;17.40;99.90;;;;;;6254518;23;20024;-83
2021/10/27 12:12:11;;;;;;;7.78;3.20;;;17.40;99.90;;;;;;6253757;23;20063;-83
2021/10/27 12:14:58;;;;;;;6.57;3.20;;;17.50;99.90;;;;;;6254384;23;20358;-83
2021/10/27 12:17:32;;;;;;;6.70;3.45;;;17.60;99.90;;;;;;6234220;22;20016;-76
2021/10/27 12:20:01;;;;;;;9.48;3.78;;;17.60;99.90;;;;;;6225384;23;20032;-78
2021/10/27 12:22:30;;;;;;;6.97;3.28;;;17.60;99.90;;;;;;6223563;23;20017;-77
2021/10/27 12:25:01;;;;;;;5.63;3.30;;;17.70;99.90;;;;;;6216218;23;20052;-77
2021/10/27 12:27:31;;;;;;;8.25;3.10;;;17.70;99.90;;;;;;6236416;23;20024;-77
2021/10/27 12:30:00;;;;;;;8.15;3.50;;;17.70;99.90;;;;;;6246512;23;20055;-78
2021/10/27 12:32:29;;;;;;;6.47;3.22;;;17.70;99.90;;;;;;6245364;23;20051;-77
2021/10/27 12:34:58;;;;;;;8.07;4.03;;;17.80;99.90;;;;;;6245902;23;20292;-77
2021/10/27 12:37:34;;;;;;;5.60;3.30;;;17.80;99.90;;;;;;6245578;23;20062;-77
2021/10/27 12:40:17;;;;;;;5.30;3.30;;;17.80;99.90;;;;;;6245666;23;20020;-77
2021/10/27 12:42:45;;;;;;;6.35;3.67;;;17.80;99.90;;;;;;6245046;23;20108;-78
2021/10/27 12:45:12;;;;;;;5.40;3.25;;;17.90;99.90;;;;;;6246206;23;20024;-77
2021/10/27 12:47:40;;;;;;;8.05;3.45;;;17.90;99.90;;;;;;6245962;23;20052;-78
2021/10/27 12:50:11;;;;;;;5.13;3.72;;;17.90;99.90;;;;;;6245693;23;20073;-76
2021/10/27 12:52:41;;;;;;;7.68;3.30;;;17.90;99.90;;;;;;6245521;23;20096;-77
2021/10/27 12:55:17;;;;;;;8.15;3.42;;;17.90;99.90;;;;;;6245048;23;20028;-76
2021/10/27 12:57:50;;;;;;;8.25;3.58;;;17.90;99.90;;;;;;6244829;23;20027;-77
2021/10/27 13:00:21;;;;;;;8.30;3.30;;;18.00;99.90;;;;;;6245332;23;20319;-76
2021/10/27 13:03:03;;;;;;;5.30;3.08;;;17.90;99.90;;;;;;6244416;23;20016;-77
2021/10/27 13:05:34;;;;;;;8.60;3.00;;;18.00;99.90;;;;;;6244864;23;20561;-76
2021/10/27 13:08:08;;;;;;;5.13;3.10;;;18.00;99.90;;;;;;6245701;23;20329;-76
2021/10/27 13:10:46;;;;;;;5.90;3.35;;;18.10;99.90;;;;;;6244938;23;20281;-77
2021/10/27 13:13:28;;;;;;;5.63;3.35;;;18.10;99.90;;;;;;6245073;23;20059;-78
2021/10/27 13:16:07;;;;;;;5.53;3.20;;;18.10;99.90;;;;;;6244272;23;20027;-77
2021/10/27 13:29:49;;;;;;;7.05;3.70;;;17.90;99.90;;;;;;6245028;23;20082;-77
2021/10/27 13:32:18;;;;;;;6.50;3.35;;;17.90;99.90;;;;;;6244374;23;20473;-77
2021/10/27 13:34:45;;;;;;;9.55;3.67;;;17.90;99.90;;;;;;6244609;23;20035;-77
2021/10/27 13:37:12;;;;;;;5.30;2.85;;;17.90;99.90;;;;;;6244462;23;20094;-77
2021/10/27 13:39:40;;;;;;;5.90;3.33;;;17.90;99.90;;;;;;6244759;23;20024;-76
2021/10/27 13:42:14;;;;;;;11.77;3.85;;;17.90;99.90;;;;;;6244730;23;20078;-77
2021/10/27 13:44:45;;;;;;;6.88;3.20;;;18.00;99.90;;;;;;6244700;23;20024;-77
2021/10/27 13:47:27;;;;;;;8.27;3.50;;;18.00;99.90;;;;;;6244199;23;20342;-79
2021/10/27 14:06:32;;;;;;;6.28;3.10;;;18.50;99.90;;;;;;6244603;23;20473;-78
2021/10/27 14:09:02;;;;;;;5.07;3.42;;;18.50;99.90;;;;;;6244879;23;20074;-77
2021/10/27 14:11:33;;;;;;;9.23;3.58;;;18.40;99.90;;;;;;6244405;23;20016;-78
2021/10/27 14:14:16;;;;;;;4.95;3.20;;;18.40;99.90;;;;;;6245561;23;20078;-78
2021/10/27 14:19:45;;;;;;;10.90;3.63;;;18.30;99.90;;;;;;6245954;23;20087;-77
2021/10/27 15:19:55;;;;;;;12.32;4.03;;;17.20;99.90;;;;;;6246085;23;20358;-78
2021/10/27 15:22:36;;;;;;;6.15;3.83;;;17.20;99.90;;;;;;6245677;23;20020;-78
2021/10/27 15:25:29;;;;;;;9.00;4.15;;;17.10;99.90;;;;;;6245546;23;20091;-78
2021/10/27 15:31:09;;;;;;;8.07;4.20;;;17.00;99.90;;;;;;6245897;23;20435;-78
2021/10/27 15:36:25;;;;;;;8.68;4.30;;;17.00;99.90;;;;;;6218994;23;20617;-78
2021/10/27 15:41:50;;;;;;;9.23;4.15;;;16.90;99.90;;;;;;6245977;23;20030;-79
2021/10/27 15:44:25;;;;;;;10.73;4.50;;;16.80;99.90;;;;;;6246103;23;20016;-79
2021/10/27 15:52:23;;;;;;;10.48;4.70;;;16.60;99.90;;;;;;6246096;23;20062;-79
2021/10/27 15:54:51;;;;;;;9.68;4.50;;;16.60;99.90;;;;;;6244812;23;20485;-77
2021/10/27 15:57:18;;;;;;;7.60;4.60;;;16.50;99.90;;;;;;6245128;23;20024;-79
2021/10/27 15:59:46;;;;;;;13.48;4.90;;;16.40;99.90;;;;;;6246157;23;20464;-79
2021/10/27 16:02:13;;;;;;;9.88;4.25;;;16.30;99.90;;;;;;6246161;23;20024;-79
2021/10/27 16:04:40;;;;;;;10.65;4.20;;;16.30;99.90;;;;;;6246562;23;20462;-79
2021/10/27 16:07:08;;;;;;;7.20;4.00;;;16.20;99.90;;;;;;6245209;23;20024;-79
2021/10/27 16:09:43;;;;;;;5.88;4.10;;;16.20;99.90;;;;;;6245072;23;20103;-78
2021/10/27 16:12:11;;;;;;;9.98;4.80;;;16.10;99.90;;;;;;6244990;23;20020;-78
2021/10/27 16:14:38;;;;;;;9.13;4.75;;;16.00;99.90;;;;;;6245269;23;20016;-77
2021/10/27 16:17:05;;;;;;;8.23;4.50;;;15.90;99.90;;;;;;6244574;22;20024;-78
2021/10/27 16:19:33;;;;;;;7.72;5.07;;;15.90;99.90;;;;;;6245024;23;20401;-77
2021/10/27 16:22:00;;;;;;;6.70;4.72;;;15.90;99.90;;;;;;6245366;23;20074;-77
2021/10/27 16:24:28;;;;;;;7.63;4.60;;;15.70;99.90;;;;;;6247980;23;20086;-75
2021/10/27 16:26:58;;;;;;;10.23;4.57;;;15.70;99.90;;;;;;6245992;23;20024;-76
2021/10/27 16:29:25;;;;;;;9.25;4.50;;;15.60;99.90;;;;;;6244502;23;20027;-76
2021/10/27 16:31:52;;;;;;;8.85;4.85;;;15.50;99.90;;;;;;6245000;23;20044;-76
2021/10/27 16:34:19;;;;;;;7.57;4.60;;;15.40;99.90;;;;;;6245252;23;20091;-78